Time;durP1;ratioP1;P1;durP2;ratioP2;P2;SDS_P1;SDS_P2;PMS_P1;PMS_P2;Temp;Humidity;BMP_temperature;BMP_pressure;BME280_temperature;BME280_humidity;BME280_pressure;Samples;Min_cycle;Max_cycle;Signal;HPM_P1;HPM_P2
2023/10/30 00:01:14;;;;;;;;;;;;;;;10.34;100.00;99777.72;5100361;27;20019;-74
2023/10/30 00:03:39;;;;;;;;;;;;;;;10.36;100.00;99782.91;5093687;27;19997;-74
2023/10/30 00:06:05;;;;;;;;;;;;;;;10.34;100.00;99780.38;5099288;27;20015;-74
2023/10/30 00:08:30;;;;;;;;;;;;;;;10.33;100.00;99775.16;5093840;27;19951;-74
2023/10/30 00:10:58;;;;;;;;;;;;;;;10.36;100.00;99778.44;5095009;27;20018;-74
2023/10/30 00:13:24;;;;;;;;;;;;;;;10.38;100.00;99767.63;5100185;27;19992;-74
2023/10/30 00:15:50;;;;;;;;;;;;;;;10.41;100.00;99771.91;5097499;27;20462;-74
2023/10/30 00:18:15;;;;;;;;;;;;;;;10.35;100.00;99779.41;5093541;27;20448;-74
2023/10/30 00:20:40;;;;;;;;;;;;;;;10.42;100.00;99786.91;5092714;27;19931;-74
2023/10/30 00:23:06;;;;;;;;;;;;;;;10.36;100.00;99793.56;5095745;27;19930;-74
2023/10/30 00:25:31;;;;;;;;;;;;;;;10.35;100.00;99800.72;5092259;27;19924;-74
2023/10/30 00:27:59;;;;;;;;;;;;;;;10.41;100.00;99809.22;5090979;27;20600;-74
2023/10/30 00:30:28;;;;;;;;;;;;;;;10.41;100.00;99806.53;5091341;27;20018;-76
2023/10/30 00:32:53;;;;;;;;;;;;;;;10.44;100.00;99814.28;5086713;27;19946;-74
2023/10/30 00:35:19;;;;;;;;;;;;;;;10.45;100.00;99816.00;5092288;27;20005;-74
2023/10/30 00:37:44;;;;;;;;;;;;;;;10.46;100.00;99818.53;5092844;27;20805;-76
2023/10/30 00:40:10;;;;;;;;;;;;;;;10.44;100.00;99819.59;5099893;27;19924;-76
2023/10/30 00:42:35;;;;;;;;;;;;;;;10.50;100.00;99820.00;5093034;27;19932;-76
2023/10/30 00:45:04;;;;;;;;;;;;;;;10.54;100.00;99823.22;5102483;27;20733;-76
2023/10/30 00:47:29;;;;;;;;;;;;;;;10.51;100.00;99829.66;5092141;27;19924;-76
2023/10/30 00:49:55;;;;;;;;;;;;;;;10.49;100.00;99833.41;5087175;27;19927;-74
2023/10/30 00:52:23;;;;;;;;;;;;;;;10.50;100.00;99824.47;5096234;27;19945;-74
2023/10/30 00:54:48;;;;;;;;;;;;;;;10.53;100.00;99826.88;5097130;27;19924;-74
2023/10/30 00:57:13;;;;;;;;;;;;;;;10.55;100.00;99833.78;5099305;27;20050;-74
2023/10/30 00:59:40;;;;;;;;;;;;;;;10.53;100.00;99841.03;5072669;27;20380;-75
2023/10/30 01:02:05;;;;;;;;;;;;;;;10.53;100.00;99842.88;5094824;27;19956;-74
2023/10/30 01:04:33;;;;;;;;;;;;;;;10.55;100.00;99841.78;5097193;27;19935;-74
2023/10/30 01:06:59;;;;;;;;;;;;;;;10.52;100.00;99850.03;5098003;27;19971;-74
2023/10/30 01:09:24;;;;;;;;;;;;;;;10.57;100.00;99847.84;5078346;27;19920;-76
2023/10/30 01:11:50;;;;;;;;;;;;;;;10.57;100.00;99852.31;5092819;27;19924;-74
2023/10/30 01:14:16;;;;;;;;;;;;;;;10.56;100.00;99854.16;5097428;27;19920;-74
2023/10/30 01:16:43;;;;;;;;;;;;;;;10.59;100.00;99853.91;5096426;27;19998;-74
2023/10/30 01:19:08;;;;;;;;;;;;;;;10.62;100.00;99863.47;5115500;27;19924;-74
2023/10/30 01:21:34;;;;;;;;;;;;;;;10.63;100.00;99860.66;5097499;27;20629;-76
2023/10/30 01:23:59;;;;;;;;;;;;;;;10.71;100.00;99867.22;5095201;27;19970;-76
2023/10/30 01:26:25;;;;;;;;;;;;;;;10.76;100.00;99860.56;5091862;27;19931;-76
2023/10/30 01:28:50;;;;;;;;;;;;;;;10.74;100.00;99864.31;5084436;27;19931;-76
2023/10/30 01:31:15;;;;;;;;;;;;;;;10.69;100.00;99864.66;5103269;27;19923;-76
2023/10/30 01:33:41;;;;;;;;;;;;;;;10.75;100.00;99860.69;5092731;27;20799;-76
2023/10/30 01:36:06;;;;;;;;;;;;;;;10.75;100.00;99861.53;5093195;27;20032;-76
2023/10/30 01:38:31;;;;;;;;;;;;;;;10.79;100.00;99876.31;5077382;27;20054;-76
2023/10/30 01:40:57;;;;;;;;;;;;;;;10.80;100.00;99870.00;5077551;27;20776;-75
2023/10/30 01:43:30;;;;;;;;;;;;;;;10.78;100.00;99874.59;5091670;27;19994;-75
2023/10/30 01:45:55;;;;;;;;;;;;;;;10.77;100.00;99880.91;5115183;27;19928;-76
2023/10/30 01:48:21;;;;;;;;;;;;;;;10.76;100.00;99876.56;5103857;27;19928;-75
2023/10/30 01:50:48;;;;;;;;;;;;;;;10.76;100.00;99886.38;5095383;27;19959;-75
2023/10/30 01:53:14;;;;;;;;;;;;;;;10.81;100.00;99879.72;5083637;27;19920;-75
2023/10/30 01:55:41;;;;;;;;;;;;;;;10.78;100.00;99879.94;5088077;27;19927;-75
2023/10/30 01:58:08;;;;;;;;;;;;;;;10.81;100.00;99873.53;5066526;27;20762;-76
2023/10/30 02:00:34;;;;;;;;;;;;;;;10.83;100.00;99869.75;5097775;27;20038;-75
2023/10/30 02:02:59;;;;;;;;;;;;;;;10.83;100.00;99861.75;5079279;27;19966;-75
2023/10/30 02:05:24;;;;;;;;;;;;;;;10.89;100.00;99863.94;5076146;27;20447;-75
2023/10/30 02:07:49;;;;;;;;;;;;;;;10.93;100.00;99863.69;5092186;27;19955;-76
2023/10/30 02:10:15;;;;;;;;;;;;;;;10.88;100.00;99872.06;5096949;27;20117;-75
2023/10/30 02:12:41;;;;;;;;;;;;;;;10.82;100.00;99872.56;5076743;27;20373;-75
2023/10/30 02:15:08;;;;;;;;;;;;;;;10.84;100.00;99866.13;5094706;27;19924;-75
2023/10/30 02:17:34;;;;;;;;;;;;;;;10.85;100.00;99866.97;5094568;27;20848;-76
2023/10/30 02:20:00;;;;;;;;;;;;;;;10.94;100.00;99873.38;5075976;27;19924;-76
2023/10/30 02:22:25;;;;;;;;;;;;;;;10.89;100.00;99877.28;5070188;27;20030;-76
2023/10/30 02:24:51;;;;;;;;;;;;;;;10.89;100.00;99881.75;5098922;27;19928;-76
2023/10/30 02:27:17;;;;;;;;;;;;;;;10.82;100.00;99875.22;5096022;27;20806;-76
2023/10/30 02:29:43;;;;;;;;;;;;;;;10.81;100.00;99879.72;5098266;27;19967;-76
2023/10/30 02:32:08;;;;;;;;;;;;;;;10.76;100.00;99875.72;5094345;27;19920;-76
2023/10/30 02:34:33;;;;;;;;;;;;;;;10.83;100.00;99879.56;5090440;27;20022;-74
2023/10/30 02:37:00;;;;;;;;;;;;;;;10.84;100.00;99881.25;5097139;27;19924;-74
2023/10/30 02:39:32;;;;;;;;;;;;;;;10.86;100.00;99879.34;5085480;27;20176;-74
2023/10/30 02:41:59;;;;;;;;;;;;;;;10.79;100.00;99879.00;5081378;27;19984;-74
2023/10/30 02:44:24;;;;;;;;;;;;;;;10.84;100.00;99875.94;5080702;27;19931;-74
2023/10/30 02:46:50;;;;;;;;;;;;;;;10.77;100.00;99870.25;5093071;27;19919;-74
2023/10/30 02:49:15;;;;;;;;;;;;;;;10.78;100.00;99879.94;5066781;27;19923;-74
2023/10/30 02:51:41;;;;;;;;;;;;;;;10.77;100.00;99882.75;5081523;27;19928;-74
2023/10/30 02:54:06;;;;;;;;;;;;;;;10.80;100.00;99893.16;5077130;27;20038;-74
2023/10/30 02:56:31;;;;;;;;;;;;;;;10.74;100.00;99893.63;5099828;27;20294;-74
2023/10/30 02:58:59;;;;;;;;;;;;;;;10.80;100.00;99891.34;5083009;27;19997;-74
2023/10/30 03:01:26;;;;;;;;;;;;;;;10.74;100.00;99882.97;5108572;27;20140;-76
2023/10/30 03:03:51;;;;;;;;;;;;;;;10.76;100.00;99895.22;5092072;27;19932;-74
2023/10/30 03:06:17;;;;;;;;;;;;;;;10.77;100.00;99894.25;5096943;27;20031;-74
2023/10/30 03:08:44;;;;;;;;;;;;;;;10.71;100.00;99888.56;5097514;27;19927;-74
2023/10/30 03:11:09;;;;;;;;;;;;;;;10.69;100.00;99888.66;5093115;27;19929;-75
2023/10/30 03:13:38;;;;;;;;;;;;;;;10.72;100.00;99891.09;5110313;27;20597;-74
2023/10/30 03:16:03;;;;;;;;;;;;;;;10.63;100.00;99883.81;5089914;27;20032;-74
2023/10/30 03:18:29;;;;;;;;;;;;;;;10.71;100.00;99893.91;5093832;27;20001;-74
2023/10/30 03:20:54;;;;;;;;;;;;;;;10.70;100.00;99898.38;5106564;27;19920;-74
2023/10/30 03:23:23;;;;;;;;;;;;;;;10.61;100.00;99901.78;5095966;27;20498;-74
2023/10/30 03:25:48;;;;;;;;;;;;;;;10.60;100.00;99902.75;5096489;27;19966;-74
2023/10/30 03:28:14;;;;;;;;;;;;;;;10.58;100.00;99902.00;5098321;27;19920;-74
2023/10/30 03:30:39;;;;;;;;;;;;;;;10.59;100.00;99901.91;5097655;27;20582;-74
2023/10/30 03:33:05;;;;;;;;;;;;;;;10.63;100.00;99916.66;5081660;27;20510;-74
2023/10/30 03:35:31;;;;;;;;;;;;;;;10.61;100.00;99915.94;5085594;27;20009;-74
2023/10/30 03:37:56;;;;;;;;;;;;;;;10.60;100.00;99918.75;5090792;27;19927;-74
2023/10/30 03:40:22;;;;;;;;;;;;;;;10.60;100.00;99914.25;5082135;27;20339;-74
2023/10/30 03:42:48;;;;;;;;;;;;;;;10.58;100.00;99920.66;5115001;27;20893;-74
2023/10/30 03:45:13;;;;;;;;;;;;;;;10.51;100.00;99922.13;5092109;27;19927;-74
2023/10/30 03:47:39;;;;;;;;;;;;;;;10.52;100.00;99926.47;5072955;27;19919;-74
2023/10/30 03:50:06;;;;;;;;;;;;;;;10.52;100.00;99931.81;5098605;27;19951;-74
2023/10/30 03:52:31;;;;;;;;;;;;;;;10.51;100.00;99930.97;5092611;27;19924;-74
2023/10/30 03:55:03;;;;;;;;;;;;;;;10.48;100.00;99928.53;5093331;27;19920;-74
2023/10/30 03:57:28;;;;;;;;;;;;;;;10.43;100.00;99932.50;5094077;27;19993;-74
2023/10/30 03:59:54;;;;;;;;;;;;;;;10.42;100.00;99928.16;5080855;28;20333;-74
2023/10/30 04:02:19;;;;;;;;;;;;;;;10.47;100.00;99924.16;5095195;27;19966;-74
2023/10/30 04:04:44;;;;;;;;;;;;;;;10.42;100.00;99928.16;5081682;27;20002;-74
2023/10/30 04:07:10;;;;;;;;;;;;;;;10.44;100.00;99926.22;5090290;27;19949;-74
2023/10/30 04:09:35;;;;;;;;;;;;;;;10.42;100.00;99923.69;5092801;27;20847;-74
2023/10/30 04:12:02;;;;;;;;;;;;;;;10.33;100.00;99913.72;5093834;27;19928;-74
2023/10/30 04:14:30;;;;;;;;;;;;;;;10.37;100.00;99924.03;5107109;27;19931;-74
2023/10/30 04:17:02;;;;;;;;;;;;;;;10.33;100.00;99935.03;5090800;27;19985;-74
2023/10/30 04:19:28;;;;;;;;;;;;;;;10.34;100.00;99936.72;5093457;27;19920;-74
2023/10/30 04:21:53;;;;;;;;;;;;;;;10.28;100.00;99929.22;5099932;27;19924;-73
2023/10/30 04:24:18;;;;;;;;;;;;;;;10.26;100.00;99937.34;5091657;27;20381;-74
2023/10/30 04:26:44;;;;;;;;;;;;;;;10.22;100.00;99935.84;5091937;27;19920;-74
2023/10/30 04:29:09;;;;;;;;;;;;;;;10.19;100.00;99929.88;5091860;27;19919;-74
2023/10/30 04:31:34;;;;;;;;;;;;;;;10.14;100.00;99938.25;5100675;27;20079;-74
2023/10/30 04:34:00;;;;;;;;;;;;;;;10.16;100.00;99927.47;5091802;27;20614;-74
2023/10/30 04:36:26;;;;;;;;;;;;;;;10.10;100.00;99921.66;5073063;27;19920;-74
2023/10/30 04:38:52;;;;;;;;;;;;;;;10.05;100.00;99931.81;5096846;27;19924;-74
2023/10/30 04:41:17;;;;;;;;;;;;;;;10.04;100.00;99931.91;5091391;27;19928;-74
2023/10/30 04:43:43;;;;;;;;;;;;;;;10.00;100.00;99927.78;5078415;27;19967;-74
2023/10/30 04:46:08;;;;;;;;;;;;;;;10.00;100.00;99928.63;5095557;27;19927;-74
2023/10/30 04:48:33;;;;;;;;;;;;;;;10.00;100.00;99930.47;5096002;27;19924;-74
2023/10/30 04:50:59;;;;;;;;;;;;;;;9.92;100.00;99927.50;5092407;27;20061;-74
2023/10/30 04:53:24;;;;;;;;;;;;;;;9.93;100.00;99924.72;5074232;27;19927;-74
2023/10/30 04:55:50;;;;;;;;;;;;;;;9.95;100.00;99940.59;5092387;27;19920;-74
2023/10/30 04:58:16;;;;;;;;;;;;;;;9.87;100.00;99941.16;5089636;27;19924;-74
2023/10/30 05:00:42;;;;;;;;;;;;;;;9.85;100.00;99949.28;5095364;27;20396;-74
2023/10/30 05:03:11;;;;;;;;;;;;;;;9.88;100.00;99942.00;5094126;27;19920;-74
2023/10/30 05:05:36;;;;;;;;;;;;;;;9.83;100.00;99943.19;5072732;27;19924;-74
2023/10/30 05:08:03;;;;;;;;;;;;;;;9.83;100.00;99950.34;5092670;27;19924;-74
2023/10/30 05:10:28;;;;;;;;;;;;;;;9.81;100.00;99950.47;5081276;27;19972;-74
2023/10/30 05:12:53;;;;;;;;;;;;;;;9.83;100.00;99947.69;5091700;27;20696;-74
2023/10/30 05:15:23;;;;;;;;;;;;;;;9.78;100.00;99944.50;5090907;27;31166;-74
2023/10/30 05:17:49;;;;;;;;;;;;;;;9.75;100.00;99950.09;5091344;27;19920;-74
2023/10/30 05:20:14;;;;;;;;;;;;;;;9.81;100.00;99952.28;5097676;27;19928;-74
2023/10/30 05:22:40;;;;;;;;;;;;;;;9.75;100.00;99952.75;5109082;27;19969;-74
2023/10/30 05:25:05;;;;;;;;;;;;;;;9.81;100.00;99950.47;5094763;27;20274;-74
2023/10/30 05:27:31;;;;;;;;;;;;;;;9.82;100.00;99952.16;5090254;27;20888;-74
2023/10/30 05:29:57;;;;;;;;;;;;;;;9.74;100.00;99951.03;5071372;27;20158;-74
2023/10/30 05:32:23;;;;;;;;;;;;;;;9.69;100.00;99947.84;5089883;27;20748;-74
2023/10/30 05:34:52;;;;;;;;;;;;;;;9.72;100.00;99940.50;5107332;27;20807;-74
2023/10/30 05:37:18;;;;;;;;;;;;;;;9.66;100.00;99932.13;5106412;27;19967;-74
2023/10/30 05:39:44;;;;;;;;;;;;;;;9.63;100.00;99940.31;5091879;27;19930;-74
2023/10/30 05:42:09;;;;;;;;;;;;;;;9.67;100.00;99949.78;5092473;27;20035;-74
2023/10/30 05:44:37;;;;;;;;;;;;;;;9.59;100.00;99947.72;5095796;27;20490;-74
2023/10/30 05:47:03;;;;;;;;;;;;;;;9.63;100.00;99948.31;5091185;27;19920;-74
2023/10/30 05:49:28;;;;;;;;;;;;;;;9.51;100.00;99947.41;5097192;27;19924;-74
2023/10/30 05:51:54;;;;;;;;;;;;;;;9.52;100.00;99952.63;5096977;27;19969;-74
2023/10/30 05:54:20;;;;;;;;;;;;;;;9.54;100.00;99955.19;5104402;27;19924;-74
2023/10/30 05:56:49;;;;;;;;;;;;;;;9.55;100.00;99962.19;5090946;27;19920;-74
2023/10/30 05:59:14;;;;;;;;;;;;;;;9.54;100.00;99966.69;5077736;27;19997;-74
2023/10/30 06:01:40;;;;;;;;;;;;;;;9.47;100.00;99952.09;5091355;27;19973;-74
2023/10/30 06:04:05;;;;;;;;;;;;;;;9.41;100.00;99955.22;5090880;27;20001;-74
2023/10/30 06:06:31;;;;;;;;;;;;;;;9.43;100.00;99950.63;5096855;27;20046;-74
2023/10/30 06:08:57;;;;;;;;;;;;;;;9.48;100.00;99952.94;5096368;27;19928;-74
2023/10/30 06:11:22;;;;;;;;;;;;;;;9.49;100.00;99958.19;5098568;27;19962;-74
2023/10/30 06:13:48;;;;;;;;;;;;;;;9.46;100.00;99963.72;5077789;27;19920;-74
2023/10/30 06:16:20;;;;;;;;;;;;;;;9.40;100.00;99965.97;5091808;27;19919;-74
2023/10/30 06:18:46;;;;;;;;;;;;;;;9.42;100.00;99975.53;5092898;27;19924;-74
2023/10/30 06:21:15;;;;;;;;;;;;;;;9.48;100.00;99982.22;5093142;27;20011;-74
2023/10/30 06:23:40;;;;;;;;;;;;;;;9.36;100.00;99993.75;5092264;27;21013;-74
2023/10/30 06:26:09;;;;;;;;;;;;;;;9.47;100.00;99991.16;5085660;27;19924;-74
2023/10/30 06:28:38;;;;;;;;;;;;;;;9.47;100.00;99989.34;5096552;27;21026;-74
2023/10/30 06:31:04;;;;;;;;;;;;;;;9.49;100.00;99992.78;5096456;27;20081;-74
2023/10/30 06:33:34;;;;;;;;;;;;;;;9.50;100.00;99997.13;5097961;27;19988;-75
2023/10/30 06:36:00;;;;;;;;;;;;;;;9.44;100.00;99994.91;5092597;27;20055;-74
2023/10/30 06:38:26;;;;;;;;;;;;;;;9.46;100.00;99994.78;5097929;27;20002;-74
2023/10/30 06:40:54;;;;;;;;;;;;;;;9.46;100.00;99997.47;5097398;27;19926;-74
2023/10/30 06:43:21;;;;;;;;;;;;;;;9.45;100.00;100004.59;5090111;27;19924;-74
2023/10/30 06:45:47;;;;;;;;;;;;;;;9.40;100.00;100005.88;5079906;27;19927;-75
2023/10/30 06:48:12;;;;;;;;;;;;;;;9.46;100.00;99992.97;5094201;27;19928;-74
2023/10/30 06:50:37;;;;;;;;;;;;;;;9.48;100.00;100003.50;5094532;27;23935;-74
2023/10/30 06:53:02;;;;;;;;;;;;;;;9.47;100.00;100000.00;5093015;27;20695;-74
2023/10/30 06:55:28;;;;;;;;;;;;;;;9.42;100.00;100006.63;5095478;27;19980;-74
2023/10/30 06:57:53;;;;;;;;;;;;;;;9.43;100.00;100019.81;5094386;27;19924;-74
2023/10/30 07:00:19;;;;;;;;;;;;;;;9.42;100.00;100018.09;5098635;27;19920;-74
2023/10/30 07:02:44;;;;;;;;;;;;;;;9.44;100.00;100025.97;5095595;27;19926;-74
2023/10/30 07:05:10;;;;;;;;;;;;;;;9.54;100.00;100027.88;5096752;27;19924;-74
2023/10/30 07:07:35;;;;;;;;;;;;;;;9.65;100.00;100035.09;5079407;27;19928;-74
2023/10/30 07:10:02;;;;;;;;;;;;;;;10.26;100.00;100030.59;5099067;27;20486;-74
2023/10/30 07:12:28;;;;;;;;;;;;;;;10.47;100.00;100019.28;5105341;27;19920;-74
2023/10/30 07:14:53;;;;;;;;;;;;;;;10.23;100.00;100005.94;5096275;27;19924;-74
2023/10/30 07:17:18;;;;;;;;;;;;;;;10.19;100.00;100004.47;5099568;27;19928;-75
2023/10/30 07:19:45;;;;;;;;;;;;;;;10.15;100.00;100005.69;5098142;27;19981;-74
2023/10/30 07:22:11;;;;;;;;;;;;;;;10.20;100.00;100007.06;5091379;27;19927;-74
2023/10/30 07:24:36;;;;;;;;;;;;;;;10.34;100.00;100020.22;5079631;27;19920;-74
2023/10/30 07:27:05;;;;;;;;;;;;;;;10.34;100.00;100022.88;5101708;27;20278;-75
2023/10/30 07:29:31;;;;;;;;;;;;;;;10.43;100.00;100021.31;5083017;27;20019;-75
2023/10/30 07:31:56;;;;;;;;;;;;;;;10.41;100.00;100020.59;5096892;27;19924;-74
2023/10/30 07:34:24;;;;;;;;;;;;;;;10.48;100.00;100011.16;5070870;27;20766;-74
2023/10/30 07:36:50;;;;;;;;;;;;;;;10.52;100.00;100025.94;5063489;27;19960;-75
2023/10/30 07:39:18;;;;;;;;;;;;;;;10.59;100.00;100015.66;5098778;27;19920;-75
2023/10/30 07:41:44;;;;;;;;;;;;;;;10.61;100.00;100016.41;5096928;27;19927;-74
2023/10/30 07:44:12;;;;;;;;;;;;;;;10.74;100.00;100017.13;5095507;27;19927;-74
2023/10/30 07:46:38;;;;;;;;;;;;;;;10.76;100.00;100006.38;5106924;27;19930;-74
2023/10/30 07:49:04;;;;;;;;;;;;;;;10.78;100.00;100010.59;5097114;27;19924;-74
2023/10/30 07:51:30;;;;;;;;;;;;;;;10.86;100.00;100018.03;5105118;27;19946;-74
2023/10/30 07:53:56;;;;;;;;;;;;;;;10.82;100.00;100022.75;5089198;27;19920;-74
2023/10/30 07:56:21;;;;;;;;;;;;;;;10.82;100.00;100014.75;5092163;27;20560;-74
2023/10/30 07:58:47;;;;;;;;;;;;;;;10.92;100.00;100019.38;5096262;27;19920;-74
2023/10/30 08:01:19;;;;;;;;;;;;;;;10.96;100.00;100026.16;5110973;27;19920;-74
2023/10/30 08:03:44;;;;;;;;;;;;;;;11.00;100.00;100017.81;5071539;27;19931;-74
2023/10/30 08:06:10;;;;;;;;;;;;;;;11.03;100.00;100025.53;5093915;27;20051;-74
2023/10/30 08:08:38;;;;;;;;;;;;;;;10.96;100.00;100027.00;5104508;27;20032;-74
2023/10/30 08:11:03;;;;;;;;;;;;;;;11.13;100.00;100031.00;5093635;27;19924;-74
2023/10/30 08:13:29;;;;;;;;;;;;;;;11.16;100.00;100028.13;5080932;27;19920;-74
2023/10/30 08:15:54;;;;;;;;;;;;;;;11.15;100.00;100026.41;5096341;27;20483;-74
2023/10/30 08:18:20;;;;;;;;;;;;;;;11.21;100.00;100039.28;5098767;27;19977;-75
2023/10/30 08:20:45;;;;;;;;;;;;;;;11.20;100.00;100042.06;5100236;27;19927;-74
2023/10/30 08:23:11;;;;;;;;;;;;;;;11.25;100.00;100039.88;5100505;27;19959;-74
2023/10/30 08:25:36;;;;;;;;;;;;;;;11.30;100.00;100045.72;5085416;27;19977;-74
2023/10/30 08:28:08;;;;;;;;;;;;;;;11.28;100.00;100036.97;5098741;27;19920;-74
2023/10/30 08:30:34;;;;;;;;;;;;;;;11.41;100.00;100043.03;5099143;27;19923;-74
2023/10/30 08:33:00;;;;;;;;;;;;;;;11.51;100.00;100027.13;5097776;27;19926;-74
2023/10/30 08:35:25;;;;;;;;;;;;;;;11.57;100.00;100032.81;5112739;27;20031;-75
2023/10/30 08:37:51;;;;;;;;;;;;;;;11.70;100.00;100021.13;5096982;27;19950;-74
2023/10/30 08:40:17;;;;;;;;;;;;;;;11.79;100.00;100010.53;5097213;27;19962;-74
2023/10/30 08:42:45;;;;;;;;;;;;;;;11.92;100.00;100003.25;5085120;27;20271;-74
2023/10/30 08:45:11;;;;;;;;;;;;;;;11.96;100.00;100003.88;5092985;27;19924;-74
2023/10/30 08:47:36;;;;;;;;;;;;;;;12.13;100.00;99987.28;5083909;27;19920;-74
2023/10/30 08:50:05;;;;;;;;;;;;;;;12.19;100.00;99996.59;5086725;27;19920;-74
2023/10/30 08:52:30;;;;;;;;;;;;;;;12.23;100.00;99987.34;5097457;27;20982;-74
2023/10/30 08:54:56;;;;;;;;;;;;;;;12.41;100.00;99983.13;5092838;27;32264;-74
2023/10/30 08:57:21;;;;;;;;;;;;;;;12.34;100.00;99989.13;5090327;27;20008;-74
2023/10/30 08:59:46;;;;;;;;;;;;;;;12.37;100.00;99997.72;5091395;27;19969;-74
2023/10/30 09:02:12;;;;;;;;;;;;;;;12.41;100.00;99992.97;5095303;27;19934;-74
2023/10/30 09:04:38;;;;;;;;;;;;;;;12.40;100.00;99996.63;5092440;27;20710;-74
2023/10/30 09:07:03;;;;;;;;;;;;;;;12.37;100.00;99984.38;5109959;27;20660;-75
2023/10/30 09:09:29;;;;;;;;;;;;;;;12.37;100.00;99989.72;5095429;27;19924;-74
2023/10/30 09:11:54;;;;;;;;;;;;;;;12.55;100.00;99984.63;5091660;27;19931;-74
2023/10/30 09:14:19;;;;;;;;;;;;;;;12.59;100.00;99982.53;5099179;27;19923;-74
2023/10/30 09:16:45;;;;;;;;;;;;;;;12.65;100.00;99979.31;5092873;27;20768;-74
2023/10/30 09:19:10;;;;;;;;;;;;;;;12.64;100.00;99980.31;5090605;27;19978;-75
2023/10/30 09:21:35;;;;;;;;;;;;;;;12.84;100.00;99990.13;5081095;27;19920;-75
2023/10/30 09:24:04;;;;;;;;;;;;;;;13.01;100.00;99982.50;5095132;27;19994;-74
2023/10/30 09:26:29;;;;;;;;;;;;;;;13.10;100.00;99973.63;5091828;27;19924;-74
2023/10/30 09:28:55;;;;;;;;;;;;;;;13.20;100.00;99972.72;5096248;27;19916;-74
2023/10/30 09:31:20;;;;;;;;;;;;;;;13.32;100.00;99986.88;5072924;27;20707;-74
2023/10/30 09:33:52;;;;;;;;;;;;;;;13.46;100.00;99978.47;5091670;27;19972;-75
2023/10/30 09:36:17;;;;;;;;;;;;;;;13.53;100.00;99978.75;5107000;27;19927;-74
2023/10/30 09:38:42;;;;;;;;;;;;;;;13.61;100.00;99978.91;5096624;27;19920;-74
2023/10/30 09:41:10;;;;;;;;;;;;;;;13.64;100.00;99981.31;5094154;27;19920;-74
2023/10/30 09:43:37;;;;;;;;;;;;;;;13.64;100.00;99988.50;5100111;27;19934;-74
2023/10/30 09:46:06;;;;;;;;;;;;;;;13.68;100.00;99988.09;5092691;27;20018;-75
2023/10/30 09:48:32;;;;;;;;;;;;;;;13.70;100.00;99974.53;5094991;27;19920;-75
2023/10/30 09:50:58;;;;;;;;;;;;;;;13.81;100.00;99987.84;5093509;27;19924;-75
2023/10/30 09:53:24;;;;;;;;;;;;;;;13.77;100.00;99989.09;5097582;27;19930;-75
2023/10/30 09:55:50;;;;;;;;;;;;;;;13.84;100.00;99989.38;5101304;27;19927;-74
2023/10/30 09:58:15;;;;;;;;;;;;;;;13.51;100.00;99986.09;5075844;27;19947;-75
2023/10/30 10:00:44;;;;;;;;;;;;;;;13.61;100.00;99972.72;5089641;27;19977;-74
2023/10/30 10:03:10;;;;;;;;;;;;;;;13.85;100.00;99975.84;5101464;27;19927;-74
2023/10/30 10:05:35;;;;;;;;;;;;;;;13.86;100.00;99963.31;5091138;27;20385;-75
2023/10/30 10:08:05;;;;;;;;;;;;;;;13.92;100.00;99963.59;5109464;27;19960;-75
2023/10/30 10:10:51;;;;;;;;;;;;;;;13.95;100.00;99965.97;5090329;27;19924;-75
2023/10/30 10:13:16;;;;;;;;;;;;;;;13.93;100.00;99959.06;5088990;27;19930;-75
2023/10/30 10:15:42;;;;;;;;;;;;;;;13.80;100.00;99967.38;5090995;27;19924;-75
2023/10/30 10:18:21;;;;;;;;;;;;;;;13.87;100.00;99965.00;5095737;27;19920;-75
2023/10/30 10:21:03;;;;;;;;;;;;;;;14.07;100.00;99958.66;5093341;27;19920;-75
2023/10/30 10:23:31;;;;;;;;;;;;;;;13.97;100.00;99958.66;5096129;27;19924;-75
2023/10/30 10:26:03;;;;;;;;;;;;;;;14.21;100.00;99954.69;5096110;27;19920;-75
2023/10/30 10:28:28;;;;;;;;;;;;;;;14.16;100.00;99959.66;5087860;27;19920;-75
2023/10/30 10:30:53;;;;;;;;;;;;;;;14.14;100.00;99940.16;5091340;27;20459;-75
2023/10/30 10:33:23;;;;;;;;;;;;;;;14.17;100.00;99934.50;5095180;27;20602;-75
2023/10/30 10:35:53;;;;;;;;;;;;;;;14.34;100.00;99925.72;5091795;27;19923;-75
2023/10/30 10:38:18;;;;;;;;;;;;;;;14.37;100.00;99929.97;5099207;27;19987;-74
2023/10/30 10:40:46;;;;;;;;;;;;;;;14.36;100.00;99930.97;5099701;27;19920;-75
2023/10/30 10:43:12;;;;;;;;;;;;;;;14.37;100.00;99925.44;5065289;27;20053;-75
2023/10/30 10:45:38;;;;;;;;;;;;;;;14.23;100.00;99926.72;5074988;27;20208;-75
2023/10/30 10:48:05;;;;;;;;;;;;;;;14.50;100.00;99926.00;5092712;27;20050;-75
2023/10/30 10:50:32;;;;;;;;;;;;;;;14.61;100.00;99922.31;5073703;27;20044;-75
2023/10/30 10:52:59;;;;;;;;;;;;;;;14.54;100.00;99920.34;5090344;27;20340;-75
2023/10/30 10:55:28;;;;;;;;;;;;;;;14.64;100.00;99922.00;5114912;27;20577;-75
2023/10/30 10:57:58;;;;;;;;;;;;;;;14.65;100.00;99917.50;5078031;27;20581;-75
2023/10/30 11:00:29;;;;;;;;;;;;;;;14.70;100.00;99929.47;5078284;27;20475;-75
2023/10/30 11:03:00;;;;;;;;;;;;;;;14.84;100.00;99922.78;5094132;27;19967;-75
2023/10/30 11:05:29;;;;;;;;;;;;;;;14.93;100.00;99907.66;5095558;27;20954;-75
2023/10/30 11:08:02;;;;;;;;;;;;;;;15.12;100.00;99915.63;5095402;27;19931;-75
2023/10/30 11:10:39;;;;;;;;;;;;;;;15.19;100.00;99903.28;5091165;27;20475;-75
2023/10/30 11:13:24;;;;;;;;;;;;;;;14.93;100.00;99904.97;5090493;27;19966;-75
2023/10/30 11:15:52;;;;;;;;;;;;;;;15.11;100.00;99897.81;5092986;27;19931;-75
2023/10/30 11:18:21;;;;;;;;;;;;;;;15.13;100.00;99890.44;5091573;27;19924;-75
2023/10/30 11:20:47;;;;;;;;;;;;;;;15.33;100.00;99893.03;5071034;27;19920;-75
2023/10/30 11:23:12;;;;;;;;;;;;;;;15.32;100.00;99894.88;5096947;27;19924;-75
2023/10/30 11:25:54;;;;;;;;;;;;;;;15.57;100.00;99879.00;5090670;27;20022;-75
2023/10/30 11:28:22;;;;;;;;;;;;;;;15.63;100.00;99878.38;5107806;27;19931;-75
2023/10/30 11:30:49;;;;;;;;;;;;;;;15.63;100.00;99873.00;5079809;27;20518;-75
2023/10/30 11:33:21;;;;;;;;;;;;;;;15.77;100.00;99870.66;5097615;27;19924;-75
2023/10/30 11:35:50;;;;;;;;;;;;;;;15.73;100.00;99871.97;5089973;27;19924;-75
2023/10/30 11:38:18;;;;;;;;;;;;;;;15.54;100.00;99869.41;5080106;27;20417;-75
2023/10/30 11:41:00;;;;;;;;;;;;;;;15.48;100.00;99878.91;5085122;27;19926;-75
2023/10/30 11:43:29;;;;;;;;;;;;;;;15.35;100.00;99870.38;5073483;27;20800;-75
2023/10/30 11:46:00;;;;;;;;;;;;;;;15.36;100.00;99866.72;5093843;27;19949;-75
2023/10/30 11:48:26;;;;;;;;;;;;;;;15.30;100.00;99872.66;5098682;27;19970;-74
2023/10/30 11:50:53;;;;;;;;;;;;;;;15.34;100.00;99866.00;5063880;27;19955;-75
2023/10/30 11:53:19;;;;;;;;;;;;;;;15.16;100.00;99867.81;5098480;27;19951;-75
2023/10/30 11:55:47;;;;;;;;;;;;;;;15.37;100.00;99854.97;5075433;27;19946;-75
2023/10/30 11:58:19;;;;;;;;;;;;;;;15.27;100.00;99867.63;5077891;27;19920;-75
2023/10/30 12:00:45;;;;;;;;;;;;;;;15.10;100.00;99861.19;5094527;27;20011;-75
2023/10/30 12:03:10;;;;;;;;;;;;;;;15.12;100.00;99853.84;5096493;27;19924;-75
2023/10/30 12:05:35;;;;;;;;;;;;;;;15.13;100.00;99852.00;5099198;27;19920;-75
2023/10/30 12:08:01;;;;;;;;;;;;;;;15.06;100.00;99845.53;5099329;27;19978;-75
2023/10/30 12:10:28;;;;;;;;;;;;;;;14.90;100.00;99838.13;5102333;27;19923;-75
2023/10/30 12:12:55;;;;;;;;;;;;;;;14.77;100.00;99842.03;5076270;27;19998;-75
2023/10/30 12:15:28;;;;;;;;;;;;;;;14.94;100.00;99843.06;5095529;27;19924;-75
2023/10/30 12:17:53;;;;;;;;;;;;;;;14.93;100.00;99848.59;5094054;27;19992;-75
2023/10/30 12:20:28;;;;;;;;;;;;;;;14.89;100.00;99836.47;5110468;27;19989;-75
2023/10/30 12:22:56;;;;;;;;;;;;;;;15.07;100.00;99836.50;5080013;27;19947;-75
2023/10/30 12:25:21;;;;;;;;;;;;;;;15.22;100.00;99824.25;5090329;27;20011;-75
2023/10/30 12:28:00;;;;;;;;;;;;;;;15.35;100.00;99823.84;5093327;27;19926;-75
2023/10/30 12:30:31;;;;;;;;;;;;;;;15.34;100.00;99814.13;5089440;27;20260;-75
2023/10/30 12:32:57;;;;;;;;;;;;;;;15.44;100.00;99809.50;5091110;27;19945;-75
2023/10/30 12:35:22;;;;;;;;;;;;;;;15.39;100.00;99809.97;5090123;27;20778;-75